createdAt,value
2022-11-26T00:02:36.568Z,5.50
2022-11-26T00:07:41.413Z,5.60
2022-11-26T00:12:44.895Z,5.60
2022-11-26T00:17:48.811Z,5.40
2022-11-26T00:22:54.529Z,5.40
2022-11-26T00:27:58.367Z,5.30
2022-11-26T00:33:03.952Z,5.20
2022-11-26T00:38:11.663Z,5.50
2022-11-26T00:43:15.815Z,5.60
2022-11-26T00:48:19.936Z,5.60
2022-11-26T00:53:25.349Z,5.40
2022-11-26T00:58:30.260Z,5.40
2022-11-26T01:03:35.717Z,5.30
2022-11-26T01:08:44.030Z,5.10
2022-11-26T01:13:48.770Z,5.10
2022-11-26T01:18:54.173Z,5.00
2022-11-26T01:24:04.341Z,5.10
2022-11-26T01:29:09.878Z,4.90
2022-11-26T01:34:13.627Z,4.70
2022-11-26T01:39:19.785Z,4.90
2022-11-26T01:44:27.346Z,4.90
2022-11-26T01:49:31.819Z,4.80
2022-11-26T01:54:39.041Z,4.60
2022-11-26T01:59:43.594Z,4.60
2022-11-26T02:04:51.357Z,4.70
2022-11-26T02:09:56.443Z,4.70
2022-11-26T02:14:59.876Z,4.50
2022-11-26T02:20:34.679Z,4.40
2022-11-26T02:25:54.911Z,4.60
2022-11-26T02:31:02.819Z,4.70
2022-11-26T02:36:09.482Z,4.90
2022-11-26T02:41:13.852Z,4.70
2022-11-26T02:46:19.757Z,4.90
2022-11-26T02:51:24.874Z,4.60
2022-11-26T02:56:30.161Z,4.60
2022-11-26T03:01:37.969Z,4.50
2022-11-26T03:06:48.767Z,4.50
2022-11-26T03:11:57.221Z,4.60
2022-11-26T03:17:02.160Z,4.50
2022-11-26T03:22:05.363Z,4.50
2022-11-26T03:27:11.877Z,4.40
2022-11-26T03:32:17.654Z,4.50
2022-11-26T03:37:25.075Z,4.60
2022-11-26T03:42:31.109Z,4.60
2022-11-26T03:47:37.515Z,4.50
2022-11-26T03:52:41.327Z,4.50
2022-11-26T03:57:46.143Z,4.50
2022-11-26T04:02:51.259Z,4.50
2022-11-26T04:07:54.415Z,4.60
2022-11-26T04:12:57.901Z,4.20
2022-11-26T04:18:03.357Z,4.20
2022-11-26T04:23:07.209Z,4.20
2022-11-26T04:28:10.741Z,4.10
2022-11-26T04:33:15.889Z,4.10
2022-11-26T04:38:24.176Z,4.10
2022-11-26T04:43:28.952Z,4.30
2022-11-26T04:48:33.569Z,4.30
2022-11-26T04:53:37.363Z,4.20
2022-11-26T04:58:40.674Z,4.30
2022-11-26T05:03:45.455Z,4.50
2022-11-26T05:08:49.418Z,4.50
2022-11-26T05:13:52.617Z,4.60
2022-11-26T05:18:57.630Z,4.40
2022-11-26T05:24:02.423Z,4.50
2022-11-26T05:29:05.784Z,4.60
2022-11-26T05:34:11.550Z,4.60
2022-11-26T05:39:14.870Z,4.60
2022-11-26T05:44:18.574Z,4.60
2022-11-26T05:49:23.654Z,4.90
2022-11-26T05:54:28.397Z,4.90
2022-11-26T05:59:31.993Z,5.10
2022-11-26T06:04:39.312Z,5.10
2022-11-26T06:09:43.598Z,5.10
2022-11-26T06:14:47.343Z,5.20
2022-11-26T06:19:52.331Z,5.20
2022-11-26T06:24:56.951Z,5.00
2022-11-26T06:30:00.732Z,4.90
2022-11-26T06:35:06.032Z,5.20
2022-11-26T06:40:10.432Z,5.20
2022-11-26T06:45:13.711Z,5.20
2022-11-26T06:50:19.520Z,5.40
2022-11-26T06:55:23.240Z,5.40
2022-11-26T07:00:27.954Z,5.50
2022-11-26T07:05:34.713Z,5.50
2022-11-26T07:10:38.357Z,5.40
2022-11-26T07:15:42.250Z,5.40
2022-11-26T07:20:47.266Z,5.40
2022-11-26T07:25:51.089Z,5.70
2022-11-26T07:30:54.237Z,5.80
2022-11-26T07:36:01.718Z,5.80
2022-11-26T07:41:07.463Z,5.80
2022-11-26T07:46:15.227Z,5.70
2022-11-26T07:51:21.875Z,5.70
2022-11-26T07:56:29.054Z,5.90
2022-11-26T08:01:33.222Z,5.90
2022-11-26T08:06:38.096Z,6.10
2022-11-26T08:11:41.692Z,5.90
2022-11-26T08:16:44.970Z,5.90
2022-11-26T08:21:49.668Z,5.90
2022-11-26T08:26:52.845Z,6.30
2022-11-26T08:31:56.562Z,6.60
2022-11-26T08:37:01.960Z,6.60
2022-11-26T08:42:05.606Z,6.60
2022-11-26T08:47:09.216Z,6.90
2022-11-26T08:52:14.021Z,6.60
2022-11-26T08:57:17.891Z,6.80
2022-11-26T09:13:18.425Z,4.80
2022-11-26T09:18:29.625Z,7.10
2022-11-26T09:23:37.200Z,7.10
2022-11-26T09:28:42.468Z,6.90
2022-11-26T09:33:46.240Z,7.10
2022-11-26T09:38:53.427Z,7.30
2022-11-26T09:44:36.793Z,7.10
2022-11-26T09:49:54.142Z,7.40
2022-11-26T09:55:05.826Z,7.60
2022-11-26T10:00:22.098Z,7.60
2022-11-26T10:05:36.026Z,8.00
2022-11-26T10:11:04.761Z,7.60
2022-11-26T10:16:21.969Z,7.60
2022-11-26T10:21:37.944Z,7.80
2022-11-26T10:26:50.828Z,7.60
2022-11-26T10:31:58.246Z,7.60
2022-11-26T10:37:04.329Z,7.60
2022-11-26T10:42:25.077Z,7.80
2022-11-26T10:47:30.680Z,7.70
2022-11-26T10:52:34.686Z,8.00
2022-11-26T10:57:40.129Z,8.40
2022-11-26T11:02:49.468Z,8.50
2022-11-26T11:07:55.422Z,8.10
2022-11-26T11:13:11.317Z,8.00
2022-11-26T11:18:19.380Z,7.90
2022-11-26T11:23:40.378Z,7.80
2022-11-26T11:28:53.753Z,7.90
2022-11-26T11:34:14.831Z,8.10
2022-11-26T11:39:34.804Z,8.30
2022-11-26T11:44:40.438Z,8.50
2022-11-26T11:49:58.735Z,8.40
2022-11-26T11:55:04.661Z,8.40
2022-11-26T12:00:13.518Z,8.10
2022-11-26T12:05:46.725Z,8.60
2022-11-26T12:10:55.551Z,8.60
2022-11-26T12:16:01.137Z,8.10
2022-11-26T12:21:08.826Z,8.10
2022-11-26T12:26:13.554Z,8.40
2022-11-26T12:31:18.493Z,8.50
2022-11-26T12:36:30.930Z,8.50
2022-11-26T12:41:36.264Z,8.20
2022-11-26T12:46:42.358Z,8.30
2022-11-26T12:51:49.290Z,8.20
2022-11-26T12:56:57.707Z,8.20
2022-11-26T13:02:28.969Z,8.60
2022-11-26T13:07:45.733Z,8.60
2022-11-26T13:12:51.992Z,8.70
2022-11-26T13:17:55.678Z,9.10
2022-11-26T13:23:06.581Z,9.00
2022-11-26T13:28:18.369Z,8.80
2022-11-26T13:33:29.796Z,8.80
2022-11-26T13:38:42.683Z,8.90
2022-11-26T13:44:25.621Z,9.20
2022-11-26T13:49:32.833Z,9.20
2022-11-26T13:54:42.300Z,9.10
2022-11-26T13:59:47.258Z,8.80
2022-11-26T14:04:55.962Z,9.00
2022-11-26T14:10:02.327Z,8.80
2022-11-26T14:15:29.989Z,9.00
2022-11-26T14:20:35.980Z,8.80
2022-11-26T14:25:51.446Z,9.30
2022-11-26T14:31:18.264Z,9.20
2022-11-26T14:36:22.603Z,9.30
2022-11-26T14:41:29.172Z,9.60
2022-11-26T14:46:33.355Z,9.20
2022-11-26T14:51:47.163Z,8.80
2022-11-26T14:56:52.585Z,8.60
2022-11-26T15:01:56.198Z,8.80
2022-11-26T15:06:59.833Z,9.10
2022-11-26T15:12:13.371Z,9.40
2022-11-26T15:17:19.107Z,9.60
2022-11-26T15:22:24.511Z,10.20
2022-11-26T15:27:31.857Z,9.60
2022-11-26T15:32:39.801Z,9.30
2022-11-26T15:37:54.075Z,9.10
2022-11-26T15:43:00.626Z,9.00
2022-11-26T15:48:05.717Z,8.80
2022-11-26T15:53:14.501Z,9.00
2022-11-26T15:58:23.310Z,9.10
2022-11-26T16:09:02.626Z,8.90
2022-11-26T16:14:38.048Z,9.60
2022-11-26T16:19:53.520Z,9.50
2022-11-26T16:25:22.333Z,9.80
2022-11-26T16:30:27.957Z,10.00
2022-11-26T16:35:47.871Z,9.40
2022-11-26T16:40:55.204Z,9.10
2022-11-26T16:46:07.910Z,9.10
2022-11-26T16:51:15.043Z,8.30
2022-11-26T16:56:28.276Z,9.20
2022-11-26T17:01:35.683Z,8.20
2022-11-26T17:06:40.602Z,9.20
2022-11-26T17:11:44.336Z,8.60
2022-11-26T17:17:25.477Z,8.40
2022-11-26T17:22:53.088Z,8.50
2022-11-26T17:28:00.891Z,8.50
2022-11-26T17:33:13.874Z,9.30
2022-11-26T17:38:21.194Z,9.20
2022-11-26T17:43:26.009Z,9.30
2022-11-26T17:48:35.278Z,8.90
2022-11-26T17:53:39.965Z,8.40
2022-11-26T17:58:48.422Z,8.70
2022-11-26T18:03:58.210Z,8.50
2022-11-26T18:09:04.864Z,8.10
2022-11-26T18:14:09.094Z,7.90
2022-11-26T18:19:16.399Z,7.90
2022-11-26T18:24:23.919Z,8.00
2022-11-26T18:29:44.076Z,8.00
2022-11-26T18:35:00.206Z,7.70
2022-11-26T18:40:07.075Z,7.00
2022-11-26T18:45:15.938Z,7.70
2022-11-26T18:50:25.934Z,7.60
2022-11-26T18:55:31.720Z,7.60
2022-11-26T19:00:41.007Z,7.60
2022-11-26T19:05:46.514Z,7.70
2022-11-26T19:10:53.280Z,7.20
2022-11-26T19:22:26.338Z,8.30
2022-11-26T19:27:39.137Z,8.00
2022-11-26T19:32:51.911Z,7.90
2022-11-26T19:38:04.850Z,7.90
2022-11-26T19:43:11.931Z,7.90
2022-11-26T19:48:18.762Z,8.00
2022-11-26T19:53:24.054Z,8.10
2022-11-26T19:58:38.558Z,8.30
2022-11-26T20:03:54.522Z,9.10
2022-11-26T20:09:08.380Z,7.60
2022-11-26T20:14:12.099Z,7.70
2022-11-26T20:19:19.482Z,7.40
2022-11-26T20:24:41.499Z,7.10
2022-11-26T20:29:52.061Z,7.00
2022-11-26T20:35:04.346Z,6.60
2022-11-26T20:40:29.123Z,6.00
2022-11-26T20:46:10.295Z,5.50
2022-11-26T20:51:22.149Z,6.30
2022-11-26T20:56:33.525Z,6.00
2022-11-26T21:01:38.302Z,6.60
2022-11-26T21:06:43.558Z,5.70
2022-11-26T21:11:51.780Z,5.30
2022-11-26T21:18:06.502Z,5.10
2022-11-26T21:23:23.613Z,5.10
2022-11-26T21:28:32.211Z,5.00
2022-11-26T21:33:38.950Z,5.10
2022-11-26T21:38:50.221Z,5.20
2022-11-26T21:44:02.550Z,5.70
2022-11-26T21:49:09.049Z,3.40
2022-11-26T21:54:17.016Z,4.60
2022-11-26T21:59:21.840Z,4.80
2022-11-26T22:04:28.453Z,4.90
2022-11-26T22:09:32.015Z,5.10
2022-11-26T22:14:37.123Z,5.20
2022-11-26T22:20:06.029Z,5.50
2022-11-26T22:25:21.592Z,5.10
2022-11-26T22:30:34.014Z,5.20
2022-11-26T22:35:45.668Z,4.60
2022-11-26T22:40:52.137Z,4.20
2022-11-26T22:46:08.333Z,4.60
2022-11-26T22:51:16.363Z,4.30
2022-11-26T22:56:26.732Z,4.60
2022-11-26T23:01:37.984Z,4.60
2022-11-26T23:06:47.841Z,5.90
2022-11-26T23:11:54.956Z,3.80
2022-11-26T23:17:03.092Z,5.00
2022-11-26T23:22:10.310Z,5.00
2022-11-26T23:27:18.434Z,5.00
2022-11-26T23:32:32.131Z,4.70
2022-11-26T23:37:36.534Z,4.60
2022-11-26T23:42:44.041Z,4.50
2022-11-26T23:47:51.020Z,4.10
2022-11-26T23:52:55.535Z,3.90
2022-11-26T23:57:59.048Z,3.90
